Time;durP1;ratioP1;P1;durP2;ratioP2;P2;SDS_P1;SDS_P2;PMS_P1;PMS_P2;Temp;Humidity;BMP_temperature;BMP_pressure;BME280_temperature;BME280_humidity;BME280_pressure;Samples;Min_cycle;Max_cycle;Signal;HPM_P1;HPM_P2
2022/12/09 00:01:47;;;;;;;22.75;10.50;;;-2.10;99.90;;;;;;4983475;28;20046;-58
2022/12/09 00:04:14;;;;;;;28.60;9.35;;;-2.10;99.90;;;;;;4956137;28;20127;-59
2022/12/09 00:06:41;;;;;;;24.52;8.93;;;-2.00;99.90;;;;;;4971043;28;20425;-58
2022/12/09 00:09:09;;;;;;;24.73;9.93;;;-2.00;99.90;;;;;;4972690;28;20065;-59
2022/12/09 00:11:35;;;;;;;26.90;9.50;;;-2.10;99.90;;;;;;4970753;28;20047;-58
2022/12/09 00:14:02;;;;;;;25.85;10.82;;;-2.10;99.90;;;;;;4972230;28;20055;-58
2022/12/09 00:16:29;;;;;;;22.05;9.50;;;-2.10;99.90;;;;;;4987122;28;20082;-59
2022/12/09 00:18:57;;;;;;;26.13;10.93;;;-2.20;99.90;;;;;;4987042;28;20051;-59
2022/12/09 00:21:26;;;;;;;23.23;10.52;;;-2.20;99.90;;;;;;4970574;28;20051;-57
2022/12/09 00:23:53;;;;;;;23.50;11.18;;;-2.20;99.90;;;;;;4969951;28;20046;-56
2022/12/09 00:26:20;;;;;;;19.10;9.95;;;-2.20;99.90;;;;;;4971303;28;20046;-58
2022/12/09 00:28:48;;;;;;;18.23;9.30;;;-2.20;99.90;;;;;;4972051;28;20048;-58
2022/12/09 00:31:17;;;;;;;19.92;9.88;;;-2.20;99.90;;;;;;4971252;28;20509;-59
2022/12/09 00:33:44;;;;;;;17.42;8.82;;;-2.20;99.90;;;;;;4971673;28;20055;-58
2022/12/09 00:36:13;;;;;;;19.98;8.85;;;-2.20;99.90;;;;;;4971938;28;20111;-58
2022/12/09 00:38:40;;;;;;;23.95;8.55;;;-2.20;99.90;;;;;;4971243;28;20076;-58
2022/12/09 00:41:07;;;;;;;23.05;10.02;;;-2.20;99.90;;;;;;4970153;28;20101;-59
2022/12/09 00:43:34;;;;;;;15.05;8.02;;;-2.20;99.90;;;;;;4970143;28;20085;-59
2022/12/09 00:46:01;;;;;;;22.23;11.75;;;-2.20;99.90;;;;;;4970259;28;20529;-59
2022/12/09 00:48:28;;;;;;;19.17;8.00;;;-1.90;99.90;;;;;;4970102;28;20054;-56
2022/12/09 00:50:55;;;;;;;20.73;8.95;;;-2.20;99.90;;;;;;4970612;28;20047;-57
2022/12/09 00:53:22;;;;;;;20.85;9.15;;;-2.20;99.90;;;;;;4969258;28;20070;-58
2022/12/09 00:55:49;;;;;;;22.95;8.82;;;-2.20;99.90;;;;;;4971607;28;20090;-60
2022/12/09 00:58:16;;;;;;;17.75;9.98;;;-2.20;99.90;;;;;;4971146;28;20443;-59
2022/12/09 01:00:43;;;;;;;19.98;9.27;;;-2.10;99.90;;;;;;4971473;28;20062;-60
2022/12/09 01:03:14;;;;;;;18.90;8.52;;;-2.10;99.90;;;;;;4971300;28;20138;-59
2022/12/09 01:05:41;;;;;;;19.95;8.48;;;-2.00;99.90;;;;;;4971539;28;20061;-58
2022/12/09 01:08:08;;;;;;;17.33;9.32;;;-1.90;99.90;;;;;;4971263;28;20058;-60
2022/12/09 01:10:36;;;;;;;16.63;8.15;;;-1.90;99.90;;;;;;4971499;28;20043;-60
2022/12/09 01:13:02;;;;;;;17.35;9.00;;;-1.80;99.90;;;;;;4971153;28;20051;-60
2022/12/09 01:15:29;;;;;;;29.08;10.93;;;-1.70;99.90;;;;;;4971170;28;20086;-59
2022/12/09 01:17:56;;;;;;;28.33;9.48;;;-1.80;99.90;;;;;;4971388;28;20074;-58
2022/12/09 01:20:23;;;;;;;19.90;7.93;;;-1.40;99.90;;;;;;4971385;28;20043;-60
2022/12/09 01:22:50;;;;;;;20.60;8.27;;;-1.70;99.90;;;;;;4965202;28;20133;-55
2022/12/09 01:25:17;;;;;;;17.80;8.13;;;-1.70;99.90;;;;;;4970040;28;20150;-59
2022/12/09 01:27:44;;;;;;;19.17;8.32;;;-1.60;99.90;;;;;;4970291;28;20047;-60
2022/12/09 01:30:11;;;;;;;20.73;8.95;;;-1.60;99.90;;;;;;4971034;28;20043;-53
2022/12/09 01:32:40;;;;;;;18.35;8.23;;;-1.60;99.90;;;;;;4970720;28;20070;-57
2022/12/09 01:35:07;;;;;;;20.30;9.50;;;-1.60;99.90;;;;;;4970994;28;20046;-59
2022/12/09 01:37:34;;;;;;;20.88;9.18;;;-1.70;99.90;;;;;;4969615;28;20056;-59
2022/12/09 01:40:03;;;;;;;20.50;8.10;;;-1.70;99.90;;;;;;4969929;28;20051;-57
2022/12/09 01:42:31;;;;;;;21.50;9.52;;;-1.70;99.90;;;;;;4970667;28;20058;-59
2022/12/09 01:45:20;;;;;;;18.83;8.52;;;-1.70;99.90;;;;;;4970773;28;20577;-59
2022/12/09 01:47:53;;;;;;;19.60;8.93;;;-1.80;99.90;;;;;;4969420;28;20117;-64
2022/12/09 01:50:20;;;;;;;14.60;8.45;;;-1.80;99.90;;;;;;4967947;28;20129;-59
2022/12/09 01:52:47;;;;;;;20.38;8.57;;;-1.90;99.90;;;;;;4969065;28;20051;-58
2022/12/09 01:55:15;;;;;;;23.67;9.20;;;-2.00;99.90;;;;;;4967746;28;20051;-58
2022/12/09 01:57:41;;;;;;;17.67;8.82;;;-2.00;99.90;;;;;;4964246;28;20065;-58
2022/12/09 02:00:09;;;;;;;21.05;9.32;;;-2.00;99.90;;;;;;4967280;28;20136;-58
2022/12/09 02:02:36;;;;;;;16.70;9.98;;;-2.10;99.90;;;;;;4970673;28;20047;-61
2022/12/09 02:05:04;;;;;;;16.48;9.10;;;-2.00;99.90;;;;;;4968145;28;20137;-59
2022/12/09 02:07:31;;;;;;;22.38;8.68;;;-2.10;99.90;;;;;;4970670;28;20050;-57
2022/12/09 02:09:58;;;;;;;17.15;8.95;;;-2.10;99.90;;;;;;4970404;28;20058;-59
2022/12/09 02:12:48;;;;;;;25.52;9.90;;;-2.20;99.90;;;;;;4970472;28;20130;-58
2022/12/09 02:15:24;;;;;;;19.42;9.55;;;-2.20;99.90;;;;;;4968983;28;20047;-59
2022/12/09 02:17:56;;;;;;;23.17;12.10;;;-2.20;99.90;;;;;;4969094;28;20417;-58
2022/12/09 02:20:56;;;;;;;26.52;10.68;;;-2.30;99.90;;;;;;4968819;28;20406;-59
2022/12/09 02:23:50;;;;;;;26.40;9.10;;;-2.20;99.90;;;;;;4928959;28;20138;-58
2022/12/09 02:26:26;;;;;;;23.48;9.05;;;-2.20;99.90;;;;;;4967574;28;20047;-59
2022/12/09 02:29:16;;;;;;;18.83;8.70;;;-2.20;99.90;;;;;;4951158;28;20062;-59
2022/12/09 02:32:01;;;;;;;21.70;8.40;;;-2.10;99.90;;;;;;4966046;28;20105;-59
2022/12/09 02:34:30;;;;;;;18.60;8.55;;;-2.20;99.90;;;;;;4969648;28;20090;-58
2022/12/09 02:37:00;;;;;;;26.42;8.90;;;-2.20;99.90;;;;;;4968931;28;20054;-57
2022/12/09 02:39:33;;;;;;;20.33;8.93;;;-2.20;99.90;;;;;;4969752;28;20064;-57
2022/12/09 02:42:02;;;;;;;17.17;7.63;;;-2.20;99.90;;;;;;4965640;28;20047;-57
2022/12/09 02:44:29;;;;;;;19.10;9.40;;;-2.30;99.90;;;;;;4968888;28;20110;-58
2022/12/09 02:46:56;;;;;;;18.70;9.07;;;-2.30;99.90;;;;;;4968438;28;20047;-57
2022/12/09 02:49:23;;;;;;;19.90;9.02;;;-2.30;99.90;;;;;;4968596;28;20047;-59
2022/12/09 02:51:50;;;;;;;17.30;9.18;;;-2.30;99.90;;;;;;4961207;28;20057;-59
2022/12/09 02:54:17;;;;;;;21.80;7.53;;;-2.30;99.90;;;;;;4969750;28;20137;-59
2022/12/09 02:56:55;;;;;;;22.35;8.93;;;-2.30;99.90;;;;;;4967886;28;20049;-60
2022/12/09 02:59:22;;;;;;;24.58;9.00;;;-2.30;99.90;;;;;;4969715;28;20086;-59
2022/12/09 03:02:14;;;;;;;14.57;8.50;;;-2.30;99.90;;;;;;4968234;28;20057;-56
2022/12/09 03:04:43;;;;;;;24.42;9.45;;;-2.30;99.90;;;;;;4968266;28;20055;-58
2022/12/09 03:07:35;;;;;;;18.52;8.45;;;-2.20;99.90;;;;;;4968235;28;20047;-59
2022/12/09 03:10:24;;;;;;;18.02;9.10;;;-2.20;99.90;;;;;;4930521;29;20078;-59
2022/12/09 03:13:02;;;;;;;19.95;8.23;;;-2.10;99.90;;;;;;4968559;28;20129;-58
2022/12/09 03:15:30;;;;;;;25.40;10.07;;;-2.10;99.90;;;;;;4969144;28;20421;-59
2022/12/09 03:17:57;;;;;;;31.02;9.75;;;-1.40;99.90;;;;;;4972399;28;20074;-59
2022/12/09 03:20:26;;;;;;;29.05;9.82;;;-2.00;99.90;;;;;;4972156;28;20054;-60
2022/12/09 03:22:55;;;;;;;17.50;7.65;;;-2.00;99.90;;;;;;4971907;28;20134;-59
2022/12/09 03:25:25;;;;;;;26.77;8.90;;;-1.70;99.90;;;;;;4972159;28;20077;-60
2022/12/09 03:28:02;;;;;;;21.67;8.82;;;-1.90;99.90;;;;;;4973019;28;20521;-58
2022/12/09 03:30:38;;;;;;;21.27;8.80;;;-1.80;99.90;;;;;;4972067;28;20046;-57
2022/12/09 03:33:05;;;;;;;16.83;8.20;;;-1.80;99.90;;;;;;4955996;28;20051;-59
2022/12/09 03:35:37;;;;;;;21.20;8.98;;;-1.80;99.90;;;;;;4972884;28;20543;-58
2022/12/09 03:38:05;;;;;;;18.85;9.23;;;-1.80;99.90;;;;;;4972528;28;20442;-58
2022/12/09 03:40:32;;;;;;;26.73;10.45;;;-1.80;99.90;;;;;;4972016;28;20093;-58
2022/12/09 03:43:13;;;;;;;20.95;10.05;;;-1.70;99.90;;;;;;4970154;28;20070;-60
2022/12/09 03:45:40;;;;;;;25.65;9.88;;;-1.60;99.90;;;;;;4971404;28;20486;-60
2022/12/09 03:48:07;;;;;;;20.42;9.02;;;-1.60;99.90;;;;;;4972916;28;20042;-60
2022/12/09 03:51:04;;;;;;;19.35;8.95;;;-1.50;99.90;;;;;;4971436;28;20046;-59
2022/12/09 03:53:39;;;;;;;20.67;8.93;;;-1.50;99.90;;;;;;4971297;28;20087;-59
2022/12/09 03:56:15;;;;;;;21.88;9.68;;;-1.40;99.90;;;;;;4971746;28;20051;-60
2022/12/09 03:58:42;;;;;;;18.08;8.57;;;-1.40;99.90;;;;;;4972542;28;20051;-60
2022/12/09 04:01:09;;;;;;;17.58;9.00;;;-1.30;99.90;;;;;;4971661;28;20050;-59
2022/12/09 04:03:37;;;;;;;21.75;9.50;;;-1.30;99.90;;;;;;4970802;28;20134;-60
2022/12/09 04:06:04;;;;;;;18.00;9.15;;;-1.30;99.90;;;;;;4973330;28;20105;-60
2022/12/09 04:08:31;;;;;;;25.77;9.35;;;-1.30;99.90;;;;;;4973725;28;20134;-59
2022/12/09 04:10:58;;;;;;;23.30;8.95;;;-1.30;99.90;;;;;;4974398;28;20051;-61
2022/12/09 04:13:25;;;;;;;16.98;9.07;;;-1.30;99.90;;;;;;4973749;28;20050;-60
2022/12/09 04:15:52;;;;;;;16.92;8.15;;;-1.30;99.90;;;;;;4974497;28;20051;-61
2022/12/09 04:18:19;;;;;;;25.50;9.65;;;-1.30;99.90;;;;;;4973629;28;20047;-59
2022/12/09 04:20:46;;;;;;;22.98;10.23;;;-1.20;99.90;;;;;;4972495;28;20081;-61
2022/12/09 04:23:13;;;;;;;24.13;9.52;;;-1.10;99.90;;;;;;4972509;28;20090;-60
2022/12/09 04:25:40;;;;;;;23.50;9.43;;;-1.00;99.90;;;;;;4968173;28;20525;-60
2022/12/09 04:28:07;;;;;;;21.52;9.27;;;-0.90;99.90;;;;;;4954592;28;20558;-61
2022/12/09 04:30:33;;;;;;;18.70;9.55;;;-0.90;99.90;;;;;;4968702;28;20137;-60
2022/12/09 04:33:00;;;;;;;23.38;9.43;;;-0.80;99.90;;;;;;4972653;28;20445;-59
2022/12/09 04:35:27;;;;;;;19.75;8.90;;;-0.80;99.90;;;;;;4972036;28;20109;-60
2022/12/09 04:37:54;;;;;;;21.42;9.43;;;-0.90;99.90;;;;;;4972545;28;20051;-59
2022/12/09 04:40:21;;;;;;;20.48;9.32;;;-0.80;99.90;;;;;;4971834;28;20109;-59
2022/12/09 04:42:51;;;;;;;18.38;9.00;;;-0.80;99.90;;;;;;4971679;28;20054;-59
2022/12/09 04:45:18;;;;;;;17.90;9.25;;;-0.70;99.90;;;;;;4972041;28;20051;-61
2022/12/09 04:47:45;;;;;;;18.73;9.77;;;-0.70;99.90;;;;;;4972235;28;20077;-61
2022/12/09 04:50:12;;;;;;;20.75;8.85;;;-0.60;99.90;;;;;;4971991;28;20054;-60
2022/12/09 04:52:39;;;;;;;23.55;9.38;;;-0.60;99.90;;;;;;4971925;28;20050;-61
2022/12/09 04:55:07;;;;;;;16.67;7.85;;;-0.60;99.90;;;;;;4970937;28;20046;-61
2022/12/09 04:57:34;;;;;;;22.55;10.35;;;-0.50;99.90;;;;;;4962130;28;20048;-61
2022/12/09 05:00:02;;;;;;;22.90;9.63;;;-0.50;99.90;;;;;;4960755;28;20089;-61
2022/12/09 05:02:30;;;;;;;19.88;9.57;;;-0.40;99.90;;;;;;4971701;28;20050;-61
2022/12/09 05:05:00;;;;;;;21.33;9.82;;;-0.40;99.90;;;;;;4971526;28;20078;-62
2022/12/09 05:07:30;;;;;;;22.30;10.70;;;-0.50;99.90;;;;;;4971695;28;20536;-60
2022/12/09 05:09:57;;;;;;;20.60;9.52;;;-0.50;99.90;;;;;;4971728;28;20095;-61
2022/12/09 05:12:25;;;;;;;25.33;10.10;;;-0.50;99.90;;;;;;4960486;28;20109;-61
2022/12/09 05:14:52;;;;;;;23.98;10.10;;;-0.50;99.90;;;;;;4971265;28;20434;-60
2022/12/09 05:17:19;;;;;;;21.58;10.10;;;-0.50;99.90;;;;;;4971588;28;20050;-60
2022/12/09 05:19:46;;;;;;;20.73;9.05;;;-0.40;99.90;;;;;;4971542;28;20050;-60
2022/12/09 05:22:17;;;;;;;23.60;9.70;;;-0.40;99.90;;;;;;4970830;28;20093;-62
2022/12/09 05:24:45;;;;;;;19.25;9.75;;;-0.40;99.90;;;;;;4971349;28;20710;-60
2022/12/09 05:27:13;;;;;;;26.30;9.75;;;-0.30;99.90;;;;;;4971058;28;20125;-61
2022/12/09 05:29:40;;;;;;;17.70;9.07;;;-0.30;99.90;;;;;;4971294;28;20051;-58
2022/12/09 05:32:07;;;;;;;22.95;9.45;;;-0.30;99.90;;;;;;4966977;28;20047;-60
2022/12/09 05:34:34;;;;;;;22.85;10.80;;;-0.30;99.90;;;;;;4971115;28;20057;-60
2022/12/09 05:37:02;;;;;;;22.98;10.18;;;-0.30;99.90;;;;;;4970965;28;20438;-60
2022/12/09 05:39:29;;;;;;;25.27;10.57;;;-0.30;99.90;;;;;;4971076;28;20047;-60
2022/12/09 05:41:56;;;;;;;20.23;8.95;;;-0.30;99.90;;;;;;4969417;28;20054;-60
2022/12/09 05:44:23;;;;;;;19.00;9.95;;;-0.30;99.90;;;;;;4968119;28;20050;-60
2022/12/09 05:46:50;;;;;;;22.52;9.93;;;-0.20;99.90;;;;;;4970623;28;20046;-60
2022/12/09 05:49:17;;;;;;;21.67;9.55;;;-0.20;99.90;;;;;;4971020;28;20082;-59
2022/12/09 05:51:44;;;;;;;26.48;10.20;;;0.50;99.90;;;;;;4970603;28;20074;-60
2022/12/09 05:54:11;;;;;;;15.93;9.50;;;-0.20;99.90;;;;;;4970404;28;20082;-60
2022/12/09 05:56:38;;;;;;;20.90;10.07;;;-0.20;99.90;;;;;;4970506;28;20042;-59
2022/12/09 05:59:13;;;;;;;21.40;9.18;;;-0.20;99.90;;;;;;4970859;28;20051;-59
2022/12/09 06:01:40;;;;;;;15.93;10.27;;;-0.20;99.90;;;;;;4984584;28;20047;-60
2022/12/09 06:04:07;;;;;;;26.63;10.57;;;-0.10;99.90;;;;;;4970298;28;20115;-60
2022/12/09 06:06:35;;;;;;;21.95;9.48;;;-0.20;99.90;;;;;;4970252;28;20417;-59
2022/12/09 06:09:02;;;;;;;22.95;10.27;;;-0.20;99.90;;;;;;4970652;28;20078;-60
2022/12/09 06:11:31;;;;;;;21.15;9.73;;;-0.20;99.90;;;;;;4970291;28;20585;-59
2022/12/09 06:13:58;;;;;;;27.55;10.52;;;-0.20;99.90;;;;;;4985282;28;20544;-59
2022/12/09 06:16:25;;;;;;;26.95;9.55;;;-0.20;99.90;;;;;;4970562;28;20492;-60
2022/12/09 06:18:53;;;;;;;19.65;8.90;;;-0.10;99.90;;;;;;4970368;28;20051;-60
2022/12/09 06:21:20;;;;;;;19.67;10.07;;;-0.10;99.90;;;;;;4969297;28;20418;-60
2022/12/09 06:23:48;;;;;;;19.90;10.20;;;-0.10;99.90;;;;;;4968753;28;20051;-60
2022/12/09 06:26:24;;;;;;;19.42;10.07;;;-0.10;99.90;;;;;;4970051;28;20308;-60
2022/12/09 06:28:52;;;;;;;22.55;10.57;;;-0.10;99.90;;;;;;4970185;28;20117;-60
2022/12/09 06:31:19;;;;;;;15.90;9.50;;;-0.10;99.90;;;;;;4969258;28;20486;-60
2022/12/09 06:33:46;;;;;;;25.30;10.57;;;-0.10;99.90;;;;;;4969673;28;20149;-61
2022/12/09 06:36:24;;;;;;;22.60;11.43;;;-0.10;99.90;;;;;;4968664;28;20062;-60
2022/12/09 06:38:51;;;;;;;24.13;11.57;;;-0.10;99.90;;;;;;4968820;28;20043;-59
2022/12/09 06:41:19;;;;;;;15.77;9.85;;;0.00;99.90;;;;;;4969966;28;20066;-60
2022/12/09 06:43:46;;;;;;;16.67;9.32;;;-0.10;99.90;;;;;;4969808;28;20577;-60
2022/12/09 06:46:23;;;;;;;20.38;11.38;;;0.00;99.90;;;;;;4970185;28;20589;-59
2022/12/09 06:48:51;;;;;;;31.00;9.82;;;0.00;99.90;;;;;;4969521;28;20486;-60
2022/12/09 06:51:18;;;;;;;22.70;10.10;;;-0.10;99.90;;;;;;4969146;28;20133;-60
2022/12/09 06:53:46;;;;;;;23.13;9.68;;;-0.10;99.90;;;;;;4969441;28;20055;-59
2022/12/09 06:56:17;;;;;;;18.63;9.82;;;-0.10;99.90;;;;;;4959557;28;20074;-60
2022/12/09 06:58:44;;;;;;;22.52;10.90;;;-0.10;99.90;;;;;;4959059;28;20058;-60
2022/12/09 07:01:14;;;;;;;21.08;10.77;;;0.00;99.90;;;;;;4959425;28;20506;-60
2022/12/09 07:03:43;;;;;;;23.40;11.07;;;0.00;99.90;;;;;;4958393;28;20486;-59
2022/12/09 07:06:35;;;;;;;19.92;10.32;;;0.10;99.90;;;;;;4961311;28;20134;-60
2022/12/09 07:09:14;;;;;;;30.77;11.50;;;0.10;99.90;;;;;;4968393;28;20039;-60
2022/12/09 07:11:44;;;;;;;21.75;10.38;;;0.20;99.90;;;;;;4949006;28;20493;-59
2022/12/09 07:14:12;;;;;;;26.35;13.95;;;0.20;99.90;;;;;;4956089;28;20509;-58
2022/12/09 07:16:40;;;;;;;31.55;12.80;;;0.20;99.90;;;;;;4968233;28;20065;-59
2022/12/09 07:19:07;;;;;;;22.42;11.20;;;0.30;99.90;;;;;;4969223;28;20046;-59
2022/12/09 07:21:34;;;;;;;24.15;11.80;;;0.30;99.90;;;;;;4968136;28;20180;-59
2022/12/09 07:24:01;;;;;;;26.50;12.25;;;0.30;99.90;;;;;;4957902;28;20051;-58
2022/12/09 07:26:31;;;;;;;21.58;12.07;;;0.30;99.90;;;;;;4968235;28;20133;-60
2022/12/09 07:29:03;;;;;;;23.40;13.45;;;0.30;99.90;;;;;;4983888;28;20054;-59
2022/12/09 07:31:30;;;;;;;22.13;11.50;;;0.30;99.90;;;;;;4967230;28;20443;-59
2022/12/09 07:33:57;;;;;;;22.23;11.50;;;0.30;99.90;;;;;;4962851;28;20039;-59
2022/12/09 07:36:27;;;;;;;27.75;11.52;;;0.30;99.90;;;;;;4964779;28;20042;-59
2022/12/09 07:39:01;;;;;;;25.25;12.77;;;0.50;99.90;;;;;;4963648;28;20110;-57
2022/12/09 07:41:28;;;;;;;29.38;14.60;;;0.40;99.90;;;;;;4964348;28;20565;-58
2022/12/09 07:43:55;;;;;;;26.30;13.60;;;0.30;99.90;;;;;;4969131;28;20066;-59
2022/12/09 07:46:22;;;;;;;28.13;13.50;;;0.40;99.90;;;;;;4960156;28;20051;-60
2022/12/09 07:48:50;;;;;;;25.08;13.05;;;0.40;99.90;;;;;;4967586;28;20047;-65
2022/12/09 07:51:17;;;;;;;26.15;11.88;;;0.40;99.90;;;;;;4966601;28;20638;-58
2022/12/09 07:53:45;;;;;;;28.33;13.52;;;0.40;99.90;;;;;;4967801;28;20165;-57
2022/12/09 07:56:13;;;;;;;38.22;12.13;;;0.50;99.90;;;;;;4959638;28;20506;-60
2022/12/09 07:58:41;;;;;;;22.52;11.40;;;0.50;99.90;;;;;;4967021;28;20540;-60
2022/12/09 08:01:12;;;;;;;28.95;12.35;;;0.60;99.90;;;;;;4967219;28;20101;-60
2022/12/09 08:03:39;;;;;;;23.92;12.70;;;0.60;99.90;;;;;;4969831;28;20101;-60
2022/12/09 08:06:06;;;;;;;28.05;13.32;;;0.60;99.90;;;;;;4971953;28;20047;-59
2022/12/09 08:08:34;;;;;;;32.78;14.20;;;0.70;99.90;;;;;;4971953;28;20138;-60
2022/12/09 08:11:06;;;;;;;31.30;14.85;;;0.60;99.90;;;;;;4971751;28;20093;-61
2022/12/09 08:13:34;;;;;;;29.65;13.48;;;0.70;99.90;;;;;;4972067;28;20066;-60
2022/12/09 08:16:05;;;;;;;29.27;13.93;;;0.70;99.90;;;;;;4971839;28;20042;-61
2022/12/09 08:18:33;;;;;;;27.73;12.63;;;0.60;99.90;;;;;;4971890;28;20050;-60
2022/12/09 08:21:03;;;;;;;36.75;14.40;;;0.70;99.90;;;;;;4971238;28;20055;-60
2022/12/09 08:23:30;;;;;;;41.35;16.65;;;0.70;99.90;;;;;;4971758;28;20062;-60
2022/12/09 08:25:57;;;;;;;37.65;15.48;;;0.70;99.90;;;;;;4971531;28;20134;-60
2022/12/09 08:28:24;;;;;;;27.27;13.23;;;0.60;99.90;;;;;;4971517;28;20105;-61
2022/12/09 08:30:51;;;;;;;32.60;14.73;;;0.70;99.90;;;;;;4969950;28;20154;-61
2022/12/09 08:33:19;;;;;;;35.55;13.73;;;0.70;99.90;;;;;;4970449;28;20051;-61
2022/12/09 08:35:46;;;;;;;40.10;15.55;;;0.70;99.90;;;;;;4962649;28;20591;-60
2022/12/09 08:38:13;;;;;;;35.42;14.52;;;0.70;99.90;;;;;;4963663;28;20571;-59
2022/12/09 08:40:40;;;;;;;32.47;14.45;;;0.70;99.90;;;;;;4955957;28;20051;-59
2022/12/09 08:43:07;;;;;;;40.72;17.40;;;0.70;99.90;;;;;;4965944;28;20043;-60
2022/12/09 08:45:39;;;;;;;41.03;17.02;;;0.80;99.90;;;;;;4961462;28;20126;-59
2022/12/09 08:48:06;;;;;;;42.95;17.05;;;0.90;99.90;;;;;;4963759;28;20042;-59
2022/12/09 08:50:34;;;;;;;43.22;18.77;;;0.90;99.90;;;;;;4968085;28;20074;-61
2022/12/09 08:53:01;;;;;;;48.55;18.17;;;0.90;99.90;;;;;;4966025;28;20490;-62
2022/12/09 08:55:28;;;;;;;41.92;19.42;;;0.90;99.90;;;;;;4969098;28;20047;-59
2022/12/09 08:57:56;;;;;;;39.53;16.60;;;0.90;99.90;;;;;;4961074;28;20101;-59
2022/12/09 09:00:23;;;;;;;51.67;19.02;;;0.90;99.90;;;;;;4962438;28;20043;-61
2022/12/09 09:02:50;;;;;;;32.55;14.85;;;0.90;99.90;;;;;;4964670;28;20125;-61
2022/12/09 09:05:17;;;;;;;32.70;14.20;;;1.00;99.90;;;;;;4965548;28;20078;-61
2022/12/09 09:07:45;;;;;;;34.78;14.70;;;1.00;99.90;;;;;;4961825;28;20305;-59
2022/12/09 09:10:12;;;;;;;31.00;15.18;;;1.00;99.90;;;;;;4968965;28;20078;-59
2022/12/09 09:12:40;;;;;;;29.83;14.20;;;1.10;99.90;;;;;;4970978;28;20075;-60
2022/12/09 09:15:10;;;;;;;41.05;16.73;;;1.10;99.90;;;;;;4970779;28;20051;-60
2022/12/09 09:17:38;;;;;;;43.65;16.98;;;1.30;99.90;;;;;;4970806;28;20113;-60
2022/12/09 09:20:06;;;;;;;33.20;15.27;;;1.30;99.90;;;;;;4970784;28;20138;-60
2022/12/09 09:22:34;;;;;;;41.33;17.15;;;1.20;99.90;;;;;;4971044;28;20050;-60
2022/12/09 09:25:00;;;;;;;35.75;14.75;;;1.20;99.90;;;;;;4970171;28;20109;-60
2022/12/09 09:27:28;;;;;;;35.60;14.85;;;1.20;99.90;;;;;;4970914;28;20055;-60
2022/12/09 09:29:55;;;;;;;33.78;15.48;;;1.20;99.90;;;;;;4970552;28;20097;-61
2022/12/09 09:32:22;;;;;;;43.47;17.25;;;1.30;99.90;;;;;;4954029;28;20485;-61
2022/12/09 09:34:50;;;;;;;42.15;16.33;;;1.30;99.90;;;;;;4963267;28;20047;-61
2022/12/09 09:37:18;;;;;;;45.67;15.15;;;1.30;99.90;;;;;;4967824;28;20062;-60
2022/12/09 09:39:45;;;;;;;32.38;15.88;;;1.40;99.90;;;;;;4970061;28;20121;-61
2022/12/09 09:42:18;;;;;;;36.28;14.65;;;1.40;99.90;;;;;;4970458;28;20066;-60
2022/12/09 09:44:46;;;;;;;36.00;18.00;;;1.50;99.90;;;;;;4969742;28;20082;-61
2022/12/09 09:47:39;;;;;;;45.80;17.48;;;1.70;99.90;;;;;;4969224;28;20070;-60
2022/12/09 09:50:28;;;;;;;33.42;16.95;;;1.60;99.90;;;;;;4969073;28;20054;-59
2022/12/09 09:52:55;;;;;;;50.40;18.08;;;1.60;99.90;;;;;;4969681;28;20061;-60
2022/12/09 09:55:48;;;;;;;43.38;18.42;;;1.60;99.90;;;;;;4969680;28;20105;-60
2022/12/09 09:58:32;;;;;;;38.05;17.48;;;1.60;99.90;;;;;;4941928;28;20047;-58
2022/12/09 10:01:06;;;;;;;;;;;1.60;99.90;;;;;;4963142;28;20050;-59
2022/12/09 10:03:35;;;;;;;38.38;17.17;;;1.60;99.90;;;;;;4970463;28;20293;-59
2022/12/09 10:06:18;;;;;;;35.95;16.30;;;1.60;99.90;;;;;;4970242;28;20046;-59
2022/12/09 10:09:11;;;;;;;45.90;19.55;;;1.60;99.90;;;;;;4950075;29;20523;-59
2022/12/09 10:11:59;;;;;;;52.85;19.05;;;1.60;99.90;;;;;;4965002;28;20055;-60
2022/12/09 10:14:43;;;;;;;41.30;17.48;;;1.60;99.90;;;;;;4970293;28;20073;-59
2022/12/09 10:17:22;;;;;;;51.67;19.90;;;1.70;99.90;;;;;;4969126;28;20046;-60
2022/12/09 10:19:52;;;;;;;43.85;18.90;;;1.70;99.90;;;;;;4984898;28;20556;-60
2022/12/09 10:22:21;;;;;;;36.30;16.63;;;1.70;99.90;;;;;;4968932;28;20076;-60
2022/12/09 10:24:57;;;;;;;41.83;17.42;;;1.80;99.90;;;;;;4968273;28;20109;-60
2022/12/09 10:27:41;;;;;;;39.00;18.15;;;1.80;99.90;;;;;;4964257;28;20069;-60
2022/12/09 10:30:14;;;;;;;48.13;20.13;;;1.80;99.90;;;;;;4968692;28;20104;-59
2022/12/09 10:32:42;;;;;;;43.28;19.25;;;1.80;99.90;;;;;;4957843;28;20296;-60
2022/12/09 10:35:21;;;;;;;43.63;20.40;;;1.70;99.90;;;;;;4969933;28;20090;-60
2022/12/09 10:37:50;;;;;;;55.85;21.65;;;1.80;99.90;;;;;;4969987;28;20047;-59
2022/12/09 10:40:35;;;;;;;53.60;21.55;;;1.80;99.90;;;;;;4960449;28;20055;-59
2022/12/09 10:43:37;;;;;;;62.03;26.25;;;1.90;99.90;;;;;;4959759;28;20053;-60
2022/12/09 10:46:16;;;;;;;57.70;24.42;;;1.90;99.90;;;;;;4970010;28;20049;-59
2022/12/09 10:48:45;;;;;;;55.65;23.10;;;1.90;99.90;;;;;;4968962;28;20553;-60
2022/12/09 10:51:14;;;;;;;47.17;23.45;;;1.90;99.90;;;;;;4969896;28;20130;-60
2022/12/09 10:53:50;;;;;;;50.58;26.75;;;1.90;99.90;;;;;;4968969;28;20046;-60
2022/12/09 10:56:19;;;;;;;56.53;24.50;;;1.90;99.90;;;;;;4969506;28;20522;-64
2022/12/09 10:58:46;;;;;;;43.42;20.90;;;1.90;99.90;;;;;;4969471;28;20403;-59
2022/12/09 11:01:14;;;;;;;55.33;26.45;;;2.00;99.90;;;;;;4969087;28;20207;-60
2022/12/09 11:03:52;;;;;;;66.43;29.67;;;1.90;99.90;;;;;;4966201;28;20043;-59
2022/12/09 11:06:28;;;;;;;66.00;29.33;;;1.90;99.90;;;;;;4969793;28;20055;-60
2022/12/09 11:08:56;;;;;;;53.90;24.75;;;2.00;99.90;;;;;;4968363;28;20449;-60
2022/12/09 11:11:44;;;;;;;60.60;26.20;;;2.10;99.90;;;;;;4969254;28;20058;-59
2022/12/09 11:14:26;;;;;;;59.42;25.00;;;2.20;99.90;;;;;;4968164;28;20047;-59
2022/12/09 11:16:55;;;;;;;55.35;22.52;;;2.20;99.90;;;;;;4967917;28;20113;-59
2022/12/09 11:19:33;;;;;;;47.08;21.08;;;2.30;99.90;;;;;;4968307;28;20545;-59
2022/12/09 11:22:14;;;;;;;48.15;19.83;;;2.40;99.90;;;;;;4968017;28;20113;-59
2022/12/09 11:24:41;;;;;;;53.50;19.77;;;2.40;99.90;;;;;;4969173;28;20050;-59
2022/12/09 11:27:29;;;;;;;46.72;20.25;;;2.50;99.90;;;;;;4969095;28;20042;-60
2022/12/09 11:30:14;;;;;;;36.78;19.15;;;2.50;99.90;;;;;;4965334;28;20142;-59
2022/12/09 11:32:58;;;;;;;36.85;17.55;;;2.50;99.90;;;;;;4962869;28;20043;-59
2022/12/09 11:35:31;;;;;;;43.50;20.05;;;2.50;99.90;;;;;;4969277;28;20050;-60
2022/12/09 11:37:59;;;;;;;40.08;19.55;;;2.50;99.90;;;;;;4971470;28;20049;-60
2022/12/09 11:40:28;;;;;;;40.83;19.15;;;2.50;99.90;;;;;;4972089;28;20113;-60
2022/12/09 11:42:55;;;;;;;44.70;20.40;;;2.60;99.90;;;;;;4971593;28;20086;-59
2022/12/09 11:45:31;;;;;;;41.88;20.17;;;2.60;99.90;;;;;;4971785;28;20676;-59
2022/12/09 11:48:27;;;;;;;47.72;20.10;;;2.60;99.90;;;;;;4973107;28;20138;-58
2022/12/09 11:51:03;;;;;;;44.07;20.90;;;2.60;99.90;;;;;;4962468;28;20593;-59
2022/12/09 11:53:31;;;;;;;49.47;20.92;;;2.60;99.90;;;;;;4971339;28;20126;-60
2022/12/09 11:56:06;;;;;;;47.33;22.40;;;2.60;99.90;;;;;;4971757;28;20051;-60
2022/12/09 11:58:58;;;;;;;47.30;20.88;;;2.70;99.90;;;;;;4971232;28;20482;-60
2022/12/09 12:01:45;;;;;;;51.72;21.80;;;2.70;99.90;;;;;;4972130;28;20074;-60
2022/12/09 12:04:15;;;;;;;49.35;23.20;;;2.70;99.90;;;;;;4968235;28;20042;-60
2022/12/09 12:06:47;;;;;;;49.88;24.88;;;2.70;99.90;;;;;;4971535;28;20047;-61
2022/12/09 12:09:33;;;;;;;53.45;25.55;;;2.70;99.90;;;;;;4967723;28;20177;-60
2022/12/09 12:12:05;;;;;;;47.17;22.13;;;2.70;99.90;;;;;;4971430;28;20447;-60
2022/12/09 12:14:32;;;;;;;44.28;22.45;;;2.70;99.90;;;;;;4971098;28;20043;-61
2022/12/09 12:17:16;;;;;;;52.35;23.25;;;2.80;99.90;;;;;;4971280;28;20047;-61
2022/12/09 12:19:44;;;;;;;56.45;24.73;;;2.80;99.90;;;;;;4970905;28;20046;-59
2022/12/09 12:22:32;;;;;;;52.33;21.85;;;2.80;99.90;;;;;;4970836;28;20080;-60
2022/12/09 12:25:25;;;;;;;47.58;21.38;;;2.80;99.90;;;;;;4966045;28;20050;-60
2022/12/09 12:28:13;;;;;;;48.22;21.70;;;2.80;99.90;;;;;;4971353;28;20137;-59
2022/12/09 12:31:05;;;;;;;38.53;18.88;;;2.80;99.90;;;;;;4970797;28;20066;-59
2022/12/09 12:33:34;;;;;;;43.63;20.13;;;2.80;99.90;;;;;;4967767;28;20133;-61
2022/12/09 12:36:51;;;;;;;40.20;20.85;;;3.00;99.90;;;;;;4970377;28;20047;-59
2022/12/09 12:39:33;;;;;;;36.25;18.08;;;2.90;99.90;;;;;;4972243;28;20074;-61
2022/12/09 12:42:12;;;;;;;43.95;17.50;;;3.00;99.90;;;;;;4967677;28;20078;-59
2022/12/09 12:47:46;;;;;;;42.67;18.67;;;3.10;99.90;;;;;;4961585;28;20082;-60
2022/12/09 12:50:12;;;;;;;51.55;19.33;;;3.10;99.90;;;;;;4970439;28;20058;-60
2022/12/09 12:53:10;;;;;;;39.90;16.98;;;3.20;99.90;;;;;;4971789;28;20082;-61
2022/12/09 12:55:58;;;;;;;35.33;16.83;;;3.30;99.90;;;;;;4971479;28;20123;-60
2022/12/09 12:58:47;;;;;;;33.10;17.17;;;3.30;99.90;;;;;;4971787;28;20518;-60
2022/12/09 13:01:29;;;;;;;33.95;16.17;;;3.40;99.90;;;;;;4971089;28;20074;-59